EW1380 Weather Reports


Display with metric or nautical units.
time (UTC)temp
F
wind
direction
speed
MPH
gust
MPH
rain 1hr
in
rain 24hr
in
rain mn
in
humidity
%
barometer
mb
20221005121806 82 117 4.0 5.0 0.00 0.00 0.00 42 1022.5
20221005121206 84 136 3.0 5.0 0.00 0.00 0.00 44 1021.4
20221005120605 83 161 3.0 4.0 0.00 0.00 0.00 45 1021.4
20221005120005 83 154 1.0 4.0 0.00 0.00 0.00 44 1021.4
20221005115405 83 138 3.0 7.0 0.00 0.00 0.00 46 1021.4
20221005114805 83 139 6.0 7.0 0.00 0.00 0.00 47 1021.4
20221005114205 82 160 4.0 6.0 0.00 0.00 0.00 47 1022.5
20221005113605 82 241 1.0 5.0 0.00 0.00 0.00 48 1022.5
20221005113006 79 266 3.0 6.0 0.00 0.00 0.00 47 1022.5
20221005112405 81 246 5.0 5.0 0.00 0.00 0.00 46 1022.5
20221005111805 80 279 3.0 5.0 0.00 0.00 0.00 47 1022.5
20221005111206 82 225 2.0 4.0 0.00 0.00 0.00 48 1022.5
20221005110606 80 154 2.0 4.0 0.00 0.00 0.00 49 1022.5
20221005110005 80 125 0.0 4.0 0.00 0.00 0.00 53 1022.5
20221005104806 79 120 2.0 5.0 0.00 0.00 0.00 56 1022.5
20221005104206 74 102 2.0 5.0 0.00 0.00 0.00 61 1022.5
20221005103005 74 110 2.0 5.0 0.00 0.00 0.00 61 1023.5
20221005102406 74 86 2.0 4.0 0.00 0.00 0.00 62 1023.5
20221005101806 73 104 1.0 5.0 0.00 0.00 0.00 63 1023.5
20221005101206 73 109 4.0 5.0 0.00 0.00 0.00 61 1023.5
20221005100606 74 84 3.0 5.0 0.00 0.00 0.00 62 1023.5
20221004201805 66 70 2.0 3.0 0.00 0.00 0.00 73 1020.4
20221004201203 66 90 1.0 3.0 0.00 0.00 0.00 73 1020.4
20221004194206 66 90 1.0 4.0 0.00 0.00 0.00 72 1020.4
20221004193606 66 93 2.0 4.0 0.00 0.00 0.00 72 1020.4
20221004193006 66 93 0.0 4.0 0.00 0.00 0.00 72 1019.4
20221004192405 66 102 0.0 4.0 0.00 0.00 0.00 72 1019.4
20221004191206 66 101 2.0 4.0 0.00 0.00 0.00 71 1019.4
20221004190606 66 120 2.0 4.0 0.00 0.00 0.00 70 1019.4
20221004190006 66 122 1.0 4.0 0.00 0.00 0.00 69 1018.4
20221004185407 67 99 2.0 4.0 0.00 0.00 0.00 69 1018.4
20221004184207 67 92 1.0 3.0 0.00 0.00 0.00 69 1018.4
20221004183605 67 92 0.0 3.0 0.00 0.00 0.00 68 1018.4
20221004183006 67 0 0.0 0.0 0.00 0.00 0.00 69 1018.4
20221004182405 67 0 0.0 0.0 0.00 0.00 0.00 68 1018.4
20221004181806 67 151 0.0 2.0 0.00 0.00 0.00 68 1018.4
20221004180605 67 131 2.0 3.0 0.00 0.00 0.00 67 1017.4
20221004180006 67 116 1.0 2.0 0.00 0.00 0.00 67 1018.4
20221004175405 67 135 0.0 1.0 0.00 0.00 0.00 67 1018.4
20221004174805 67 147 0.0 1.0 0.00 0.00 0.00 67 1018.4
20221004173605 68 171 0.0 1.0 0.00 0.00 0.00 66 1018.4
20221004173006 68 173 0.0 1.0 0.00 0.00 0.00 66 1018.4
20221004162406 72 224 0.0 3.0 0.00 0.00 0.00 58 1017.4
20221004161805 72 197 0.0 3.0 0.00 0.00 0.00 58 1017.4
20221004161206 72 179 1.0 4.0 0.00 0.00 0.00 57 1017.4
20221004160605 73 173 1.0 2.0 0.00 0.00 0.00 56 1017.4
20221004160006 73 231 0.0 4.0 0.00 0.00 0.00 56 1017.4
20221004155406 73 238 3.0 4.0 0.00 0.00 0.00 56 1017.4
20221004154806 74 222 2.0 3.0 0.00 0.00 0.00 55 1017.4
20221004154205 73 208 1.0 4.0 0.00 0.00 0.00 55 1017.4
20221004151806 75 167 3.0 5.0 0.00 0.00 0.00 54 1017.4
20221004151206 74 218 0.0 5.0 0.00 0.00 0.00 54 1017.4
20221004150006 76 259 2.0 5.0 0.00 0.00 0.00 51 1017.4
20221004144205 78 175 0.0 3.0 0.00 0.00 0.00 50 1017.4
20221004143606 78 148 0.0 6.0 0.00 0.00 0.00 52 1017.4
20221004143005 78 156 2.0 6.0 0.00 0.00 0.00 53 1017.4
20221004142405 76 169 3.0 6.0 0.00 0.00 0.00 53 1017.4
20221004141806 76 182 3.0 5.0 0.00 0.00 0.00 53 1017.4
20221004141205 77 182 2.0 4.0 0.00 0.00 0.00 53 1017.4
20221004140605 76 245 1.0 6.0 0.00 0.00 0.00 55 1017.4
20221004140006 75 148 3.0 6.0 0.00 0.00 0.00 55 1017.4
20221004135406 76 157 5.0 6.0 0.00 0.00 0.00 55 1017.4
20221004134805 75 169 1.0 4.0 0.00 0.00 0.00 56 1017.4
20221004134205 75 210 2.0 6.0 0.00 0.00 0.00 55 1017.4
20221004133605 75 223 2.0 8.0 0.00 0.00 0.00 56 1017.4
20221004133006 76 207 2.0 6.0 0.00 0.00 0.00 54 1017.4
20221004131206 75 183 2.0 6.0 0.00 0.00 0.00 54 1017.4
20221004130605 75 195 3.0 6.0 0.00 0.00 0.00 55 1017.4
20221004130006 75 215 3.0 7.0 0.00 0.00 0.00 56 1017.4
20221004125407 74 187 1.0 7.0 0.00 0.00 0.00 56 1017.4
20221004124805 75 176 4.0 6.0 0.00 0.00 0.00 57 1017.4
20221004124207 76 160 2.0 7.0 0.00 0.00 0.00 55 1018.4
20221004123605 75 146 2.0 7.0 0.00 0.00 0.00 58 1018.4
20221004123006 74 151 2.0 10.0 0.00 0.00 0.00 59 1018.4
20221004122406 74 160 4.0 10.0 0.00 0.00 0.00 58 1018.4